PWSweather.com
Personal Weather Stations
Station Observations
WD4JKH
Forsyth, GA 31029

Forsyth, GA 31029

Lat: 33.033225, Lon: -83.927995

Elevation: 709

Station Type: Davis Vantage VUE

High Low Average
Temperature 49.1°F9.5°C 29.3°F-1.5°C 41.9°F5.5°C
Dew Point 44.5°F6.9°C 14.8°F-9.6°C 34.6°F1.4°C
Winds 8.1 mph 13.0 kmh 1.0 mph 1.6 kmh 4.0 mph W6.4 kmh W
Wind Gusts 16.0 mph25.7 kmh 4.0 mph6.4 kmh 10.0 mph16.1 kmh
Humidity 95% 54% 76%
Pressure 30.16 in1021.3 mb 29.93 in1013.5 mb -
Precipitation 0.15 in3.8 mm - -
Hour Temp Dew Point Humidity Winds Wind Gusts Pressure Precip Precip Rate Daily Precip Total
12:01 AM 48.6°F9.2°C 38.2°F3.4°C 67% 4.4 mph SSW7.1 kmh SSW 8.0 mph12.9 kmh 29.99 in1015.6 mb 0.00 in0.0 mm 0.00 in0.0 mm 0.00 in0.0 mm
12:06 AM 48.7°F9.3°C 38.3°F3.5°C 67% 3.2 mph SW5.1 kmh SW 8.0 mph12.9 kmh 29.99 in1015.6 mb 0.00 in0.0 mm 0.00 in0.0 mm 0.00 in0.0 mm
12:11 AM 48.7°F9.3°C 38.3°F3.5°C 67% 3.8 mph SW6.1 kmh SW 8.0 mph12.9 kmh 29.99 in1015.6 mb 0.00 in0.0 mm 0.00 in0.0 mm 0.00 in0.0 mm
12:16 AM 48.7°F9.3°C 38.3°F3.5°C 67% 4.3 mph SW6.9 kmh SW 10.0 mph16.1 kmh 29.98 in1015.2 mb 0.00 in0.0 mm 0.00 in0.0 mm 0.00 in0.0 mm
12:21 AM 48.9°F9.4°C 38.5°F3.6°C 67% 3.5 mph SW5.6 kmh SW 10.0 mph16.1 kmh 29.98 in1015.2 mb 0.00 in0.0 mm 0.00 in0.0 mm 0.00 in0.0 mm
12:26 AM 48.9°F9.4°C 38.5°F3.6°C 67% 3.8 mph SW6.1 kmh SW 12.0 mph19.3 kmh 29.98 in1015.2 mb 0.00 in0.0 mm 0.00 in0.0 mm 0.00 in0.0 mm
12:31 AM 49.0°F9.4°C 38.6°F3.7°C 67% 5.4 mph SW8.7 kmh SW 14.0 mph22.5 kmh 29.98 in1015.2 mb 0.00 in0.0 mm 0.00 in0.0 mm 0.00 in0.0 mm
12:36 AM 49.1°F9.5°C 39.0°F3.9°C 68% 4.8 mph SW7.7 kmh SW 14.0 mph22.5 kmh 29.98 in1015.2 mb 0.00 in0.0 mm 0.00 in0.0 mm 0.00 in0.0 mm
12:41 AM 49.1°F9.5°C 39.1°F3.9°C 68% 4.9 mph SW7.9 kmh SW 14.0 mph22.5 kmh 29.98 in1015.2 mb 0.00 in0.0 mm 0.00 in0.0 mm 0.00 in0.0 mm
12:46 AM 49.1°F9.5°C 39.1°F3.9°C 68% 3.9 mph SW6.3 kmh SW 14.0 mph22.5 kmh 29.97 in1014.9 mb 0.00 in0.0 mm 0.00 in0.0 mm 0.00 in0.0 mm
12:51 AM 49.1°F9.5°C 39.1°F3.9°C 68% 4.0 mph SW6.4 kmh SW 12.0 mph19.3 kmh 29.97 in1014.9 mb 0.00 in0.0 mm 0.00 in0.0 mm 0.00 in0.0 mm
12:56 AM 49.1°F9.5°C 39.1°F3.9°C 68% 3.5 mph SW5.6 kmh SW 12.0 mph19.3 kmh 29.97 in1014.9 mb 0.00 in0.0 mm 0.00 in0.0 mm 0.00 in0.0 mm
01:01 AM 49.1°F9.5°C 39.1°F3.9°C 68% 6.8 mph SW10.9 kmh SW 13.0 mph20.9 kmh 29.97 in1014.9 mb 0.00 in0.0 mm 0.00 in0.0 mm 0.00 in0.0 mm
01:06 AM 49.1°F9.5°C 39.4°F4.1°C 69% 4.8 mph SW7.7 kmh SW 13.0 mph20.9 kmh 29.97 in1014.9 mb 0.00 in0.0 mm 0.00 in0.0 mm 0.00 in0.0 mm
01:11 AM 49.1°F9.5°C 39.5°F4.2°C 69% 3.8 mph SW6.1 kmh SW 13.0 mph20.9 kmh 29.97 in1014.9 mb 0.00 in0.0 mm 0.00 in0.0 mm 0.00 in0.0 mm
01:16 AM 49.0°F9.4°C 39.4°F4.1°C 69% 3.6 mph SW5.8 kmh SW 13.0 mph20.9 kmh 29.97 in1014.9 mb 0.00 in0.0 mm 0.00 in0.0 mm 0.00 in0.0 mm
01:21 AM 48.9°F9.4°C 39.3°F4.1°C 69% 3.9 mph SW6.3 kmh SW 11.0 mph17.7 kmh 29.97 in1014.9 mb 0.00 in0.0 mm 0.00 in0.0 mm 0.00 in0.0 mm
01:26 AM 48.9°F9.4°C 39.3°F4.1°C 69% 3.8 mph SW6.1 kmh SW 11.0 mph17.7 kmh 29.97 in1014.9 mb 0.00 in0.0 mm 0.00 in0.0 mm 0.00 in0.0 mm
01:31 AM 48.8°F9.3°C 39.5°F4.2°C 70% 2.4 mph SW3.9 kmh SW 10.0 mph16.1 kmh 29.97 in1014.9 mb 0.00 in0.0 mm 0.00 in0.0 mm 0.00 in0.0 mm
01:36 AM 48.7°F9.3°C 39.5°F4.2°C 70% 3.0 mph SW4.8 kmh SW 10.0 mph16.1 kmh 29.97 in1014.9 mb 0.00 in0.0 mm 0.00 in0.0 mm 0.00 in0.0 mm
01:41 AM 48.5°F9.2°C 39.3°F4.1°C 70% 3.9 mph SW6.3 kmh SW 9.0 mph14.5 kmh 29.97 in1014.9 mb 0.00 in0.0 mm 0.00 in0.0 mm 0.00 in0.0 mm
01:46 AM 48.4°F9.1°C 39.5°F4.2°C 71% 2.2 mph SW3.5 kmh SW 8.0 mph12.9 kmh 29.97 in1014.9 mb 0.00 in0.0 mm 0.00 in0.0 mm 0.00 in0.0 mm
01:51 AM 48.4°F9.1°C 39.5°F4.2°C 71% 2.9 mph SW4.7 kmh SW 7.0 mph11.3 kmh 29.97 in1014.9 mb 0.00 in0.0 mm 0.00 in0.0 mm 0.00 in0.0 mm
01:56 AM 48.3°F9.1°C 39.7°F4.3°C 72% 4.6 mph SW7.4 kmh SW 12.0 mph19.3 kmh 29.97 in1014.9 mb 0.00 in0.0 mm 0.00 in0.0 mm 0.00 in0.0 mm
02:01 AM 48.3°F9.1°C 39.7°F4.3°C 72% 4.9 mph SW7.9 kmh SW 12.0 mph19.3 kmh 29.97 in1014.9 mb 0.00 in0.0 mm 0.00 in0.0 mm 0.00 in0.0 mm
02:06 AM 48.3°F9.1°C 39.7°F4.3°C 72% 3.6 mph SW5.8 kmh SW 12.0 mph19.3 kmh 29.97 in1014.9 mb 0.00 in0.0 mm 0.00 in0.0 mm 0.00 in0.0 mm
02:11 AM 48.2°F9.0°C 39.7°F4.3°C 72% 3.1 mph SW5.0 kmh SW 12.0 mph19.3 kmh 29.97 in1014.9 mb 0.00 in0.0 mm 0.00 in0.0 mm 0.00 in0.0 mm
02:16 AM 48.1°F8.9°C 39.9°F4.4°C 73% 1.7 mph SW2.7 kmh SW 9.0 mph14.5 kmh 29.97 in1014.9 mb 0.00 in0.0 mm 0.00 in0.0 mm 0.00 in0.0 mm
02:21 AM 48.0°F8.9°C 39.8°F4.3°C 73% 2.9 mph SW4.7 kmh SW 9.0 mph14.5 kmh 29.97 in1014.9 mb 0.00 in0.0 mm 0.00 in0.0 mm 0.00 in0.0 mm
02:26 AM 48.0°F8.9°C 40.2°F4.6°C 74% 2.9 mph SW4.7 kmh SW 9.0 mph14.5 kmh 29.97 in1014.9 mb 0.00 in0.0 mm 0.00 in0.0 mm 0.00 in0.0 mm
02:31 AM 48.0°F8.9°C 40.2°F4.6°C 74% 3.2 mph SW5.1 kmh SW 9.0 mph14.5 kmh 29.97 in1014.9 mb 0.00 in0.0 mm 0.00 in0.0 mm 0.00 in0.0 mm
02:36 AM 48.0°F8.9°C 40.2°F4.6°C 74% 5.2 mph SW8.4 kmh SW 10.0 mph16.1 kmh 29.96 in1014.6 mb 0.00 in0.0 mm 0.00 in0.0 mm 0.00 in0.0 mm
02:41 AM 47.9°F8.8°C 40.1°F4.5°C 74% 4.5 mph SW7.2 kmh SW 10.0 mph16.1 kmh 29.96 in1014.6 mb 0.00 in0.0 mm 0.00 in0.0 mm 0.00 in0.0 mm
02:46 AM 47.9°F8.8°C 40.4°F4.7°C 75% 2.6 mph SW4.2 kmh SW 10.0 mph16.1 kmh 29.96 in1014.6 mb 0.00 in0.0 mm 0.00 in0.0 mm 0.00 in0.0 mm
02:51 AM 47.8°F8.8°C 40.3°F4.6°C 75% 3.6 mph SW5.8 kmh SW 10.0 mph16.1 kmh 29.96 in1014.6 mb 0.00 in0.0 mm 0.00 in0.0 mm 0.00 in0.0 mm
02:56 AM 47.7°F8.7°C 40.2°F4.6°C 75% 5.1 mph SW8.2 kmh SW 10.0 mph16.1 kmh 29.96 in1014.6 mb 0.00 in0.0 mm 0.00 in0.0 mm 0.00 in0.0 mm
03:01 AM 47.6°F8.7°C 40.1°F4.5°C 75% 3.3 mph SW5.3 kmh SW 10.0 mph16.1 kmh 29.96 in1014.6 mb 0.00 in0.0 mm 0.00 in0.0 mm 0.00 in0.0 mm
03:06 AM 47.5°F8.6°C 40.4°F4.7°C 76% 3.1 mph SW5.0 kmh SW 10.0 mph16.1 kmh 29.95 in1014.2 mb 0.00 in0.0 mm 0.00 in0.0 mm 0.00 in0.0 mm
03:11 AM 47.4°F8.6°C 40.3°F4.6°C 76% 3.2 mph SW5.1 kmh SW 10.0 mph16.1 kmh 29.95 in1014.2 mb 0.00 in0.0 mm 0.00 in0.0 mm 0.00 in0.0 mm
03:15 AM 47.3°F8.5°C 40.5°F4.7°C 77% 3.0 mph SW4.8 kmh SW 9.0 mph14.5 kmh 29.96 in1014.6 mb 0.00 in0.0 mm 0.00 in0.0 mm 0.00 in0.0 mm
03:20 AM 47.2°F8.4°C 40.4°F4.7°C 77% 5.9 mph SW9.5 kmh SW 10.0 mph16.1 kmh 29.96 in1014.6 mb 0.00 in0.0 mm 0.00 in0.0 mm 0.00 in0.0 mm
03:25 AM 47.1°F8.4°C 40.3°F4.6°C 77% 3.5 mph SW5.6 kmh SW 10.0 mph16.1 kmh 29.95 in1014.2 mb 0.00 in0.0 mm 0.00 in0.0 mm 0.00 in0.0 mm
03:30 AM 47.0°F8.3°C 40.5°F4.7°C 78% 5.3 mph SW8.5 kmh SW 10.0 mph16.1 kmh 29.95 in1014.2 mb 0.00 in0.0 mm 0.00 in0.0 mm 0.00 in0.0 mm
03:35 AM 46.8°F8.2°C 40.3°F4.6°C 78% 2.6 mph SW4.2 kmh SW 10.0 mph16.1 kmh 29.95 in1014.2 mb 0.00 in0.0 mm 0.00 in0.0 mm 0.00 in0.0 mm
03:40 AM 46.7°F8.2°C 40.2°F4.6°C 78% 3.6 mph SW5.8 kmh SW 10.0 mph16.1 kmh 29.95 in1014.2 mb 0.00 in0.0 mm 0.00 in0.0 mm 0.00 in0.0 mm
03:45 AM 46.5°F8.1°C 40.4°F4.7°C 79% 3.3 mph SW5.3 kmh SW 10.0 mph16.1 kmh 29.95 in1014.2 mb 0.00 in0.0 mm 0.00 in0.0 mm 0.00 in0.0 mm
03:50 AM 46.4°F8.0°C 40.3°F4.6°C 79% 3.2 mph SW5.1 kmh SW 9.0 mph14.5 kmh 29.95 in1014.2 mb 0.00 in0.0 mm 0.00 in0.0 mm 0.00 in0.0 mm
03:55 AM 46.2°F7.9°C 40.4°F4.7°C 80% 3.3 mph SW5.3 kmh SW 9.0 mph14.5 kmh 29.95 in1014.2 mb 0.00 in0.0 mm 0.00 in0.0 mm 0.00 in0.0 mm
04:00 AM 46.0°F7.8°C 40.2°F4.6°C 80% 2.5 mph SW4.0 kmh SW 9.0 mph14.5 kmh 29.95 in1014.2 mb 0.00 in0.0 mm 0.00 in0.0 mm 0.00 in0.0 mm
04:05 AM 45.9°F7.7°C 40.4°F4.7°C 81% 3.1 mph SSW5.0 kmh SSW 9.0 mph14.5 kmh 29.95 in1014.2 mb 0.00 in0.0 mm 0.00 in0.0 mm 0.00 in0.0 mm
04:10 AM 45.8°F7.7°C 40.3°F4.6°C 81% 3.1 mph SSW5.0 kmh SSW 8.0 mph12.9 kmh 29.95 in1014.2 mb 0.00 in0.0 mm 0.00 in0.0 mm 0.00 in0.0 mm
04:15 AM 45.7°F7.6°C 40.2°F4.6°C 81% 2.5 mph SW4.0 kmh SW 8.0 mph12.9 kmh 29.95 in1014.2 mb 0.00 in0.0 mm 0.00 in0.0 mm 0.00 in0.0 mm
04:20 AM 45.6°F7.6°C 40.4°F4.7°C 82% 2.4 mph SSW3.9 kmh SSW 8.0 mph12.9 kmh 29.95 in1014.2 mb 0.00 in0.0 mm 0.00 in0.0 mm 0.00 in0.0 mm
04:25 AM 45.5°F7.5°C 40.3°F4.6°C 82% 2.9 mph SW4.7 kmh SW 8.0 mph12.9 kmh 29.95 in1014.2 mb 0.00 in0.0 mm 0.00 in0.0 mm 0.00 in0.0 mm
04:30 AM 45.5°F7.5°C 40.3°F4.6°C 82% 2.5 mph SW4.0 kmh SW 8.0 mph12.9 kmh 29.95 in1014.2 mb 0.00 in0.0 mm 0.00 in0.0 mm 0.00 in0.0 mm
04:35 AM 45.4°F7.4°C 40.2°F4.6°C 82% 2.8 mph SW4.5 kmh SW 8.0 mph12.9 kmh 29.95 in1014.2 mb 0.00 in0.0 mm 0.00 in0.0 mm 0.00 in0.0 mm
04:40 AM 45.3°F7.4°C 40.4°F4.7°C 83% 3.4 mph SW5.5 kmh SW 8.0 mph12.9 kmh 29.94 in1013.9 mb 0.00 in0.0 mm 0.00 in0.0 mm 0.00 in0.0 mm
04:45 AM 45.2°F7.3°C 40.3°F4.6°C 83% 3.2 mph SW5.1 kmh SW 8.0 mph12.9 kmh 29.94 in1013.9 mb 0.00 in0.0 mm 0.00 in0.0 mm 0.00 in0.0 mm
04:50 AM 45.2°F7.3°C 40.3°F4.6°C 83% 2.9 mph SW4.7 kmh SW 7.0 mph11.3 kmh 29.94 in1013.9 mb 0.00 in0.0 mm 0.00 in0.0 mm 0.00 in0.0 mm
04:55 AM 45.1°F7.3°C 40.2°F4.6°C 83% 2.8 mph SW4.5 kmh SW 7.0 mph11.3 kmh 29.94 in1013.9 mb 0.00 in0.0 mm 0.00 in0.0 mm 0.00 in0.0 mm
05:00 AM 45.1°F7.3°C 40.6°F4.8°C 84% 2.1 mph SW3.4 kmh SW 7.0 mph11.3 kmh 29.94 in1013.9 mb 0.00 in0.0 mm 0.00 in0.0 mm 0.00 in0.0 mm
05:05 AM 45.1°F7.3°C 40.5°F4.7°C 84% 2.5 mph SW4.0 kmh SW 9.0 mph14.5 kmh 29.94 in1013.9 mb 0.00 in0.0 mm 0.00 in0.0 mm 0.00 in0.0 mm
05:10 AM 45.1°F7.3°C 40.5°F4.7°C 84% 2.7 mph SW4.3 kmh SW 9.0 mph14.5 kmh 29.94 in1013.9 mb 0.00 in0.0 mm 0.00 in0.0 mm 0.00 in0.0 mm
05:15 AM 45.0°F7.2°C 40.5°F4.7°C 84% 2.6 mph SW4.2 kmh SW 9.0 mph14.5 kmh 29.94 in1013.9 mb 0.00 in0.0 mm 0.00 in0.0 mm 0.00 in0.0 mm
05:20 AM 45.0°F7.2°C 40.5°F4.7°C 84% 3.3 mph SW5.3 kmh SW 10.0 mph16.1 kmh 29.93 in1013.5 mb 0.00 in0.0 mm 0.00 in0.0 mm 0.00 in0.0 mm
05:25 AM 45.0°F7.2°C 40.5°F4.7°C 84% 2.4 mph SSW3.9 kmh SSW 10.0 mph16.1 kmh 29.93 in1013.5 mb 0.00 in0.0 mm 0.00 in0.0 mm 0.00 in0.0 mm
05:30 AM 45.0°F7.2°C 40.5°F4.7°C 84% 3.9 mph SW6.3 kmh SW 10.0 mph16.1 kmh 29.93 in1013.5 mb 0.00 in0.0 mm 0.00 in0.0 mm 0.00 in0.0 mm
05:35 AM 45.0°F7.2°C 40.5°F4.7°C 84% 3.8 mph SSW6.1 kmh SSW 10.0 mph16.1 kmh 29.93 in1013.5 mb 0.00 in0.0 mm 0.00 in0.0 mm 0.00 in0.0 mm
05:40 AM 45.0°F7.2°C 40.1°F4.5°C 83% 2.4 mph SW3.9 kmh SW 8.0 mph12.9 kmh 29.93 in1013.5 mb 0.00 in0.0 mm 0.00 in0.0 mm 0.00 in0.0 mm
05:45 AM 44.9°F7.2°C 40.4°F4.7°C 84% 2.8 mph SW4.5 kmh SW 8.0 mph12.9 kmh 29.93 in1013.5 mb 0.00 in0.0 mm 0.00 in0.0 mm 0.00 in0.0 mm
05:50 AM 44.9°F7.2°C 40.1°F4.5°C 83% 2.4 mph SW3.9 kmh SW 8.0 mph12.9 kmh 29.93 in1013.5 mb 0.00 in0.0 mm 0.00 in0.0 mm 0.00 in0.0 mm
05:55 AM 44.9°F7.2°C 40.4°F4.7°C 84% 3.0 mph SW4.8 kmh SW 7.0 mph11.3 kmh 29.93 in1013.5 mb 0.00 in0.0 mm 0.00 in0.0 mm 0.00 in0.0 mm
06:00 AM 44.9°F7.2°C 40.4°F4.7°C 84% 2.4 mph SSW3.9 kmh SSW 8.0 mph12.9 kmh 29.93 in1013.5 mb 0.00 in0.0 mm 0.00 in0.0 mm 0.00 in0.0 mm
06:05 AM 44.8°F7.1°C 40.3°F4.6°C 84% 2.0 mph SW3.2 kmh SW 8.0 mph12.9 kmh 29.93 in1013.5 mb 0.00 in0.0 mm 0.00 in0.0 mm 0.00 in0.0 mm
06:10 AM 44.7°F7.1°C 40.2°F4.6°C 84% 3.3 mph SSW5.3 kmh SSW 8.0 mph12.9 kmh 29.93 in1013.5 mb 0.00 in0.0 mm 0.00 in0.0 mm 0.00 in0.0 mm
06:15 AM 44.7°F7.1°C 40.2°F4.6°C 84% 2.9 mph SW4.7 kmh SW 8.0 mph12.9 kmh 29.93 in1013.5 mb 0.00 in0.0 mm 0.00 in0.0 mm 0.00 in0.0 mm
06:20 AM 44.7°F7.1°C 40.2°F4.6°C 84% 2.8 mph SW4.5 kmh SW 8.0 mph12.9 kmh 29.94 in1013.9 mb 0.00 in0.0 mm 0.00 in0.0 mm 0.00 in0.0 mm
06:25 AM 44.7°F7.1°C 40.2°F4.6°C 84% 1.9 mph SW3.1 kmh SW 8.0 mph12.9 kmh 29.94 in1013.9 mb 0.00 in0.0 mm 0.00 in0.0 mm 0.00 in0.0 mm
06:30 AM 44.7°F7.1°C 39.9°F4.4°C 83% 3.8 mph SSW6.1 kmh SSW 8.0 mph12.9 kmh 29.93 in1013.5 mb 0.00 in0.0 mm 0.00 in0.0 mm 0.00 in0.0 mm
06:35 AM 44.7°F7.1°C 39.9°F4.4°C 83% 2.2 mph SSW3.5 kmh SSW 9.0 mph14.5 kmh 29.93 in1013.5 mb 0.00 in0.0 mm 0.00 in0.0 mm 0.00 in0.0 mm
06:40 AM 44.7°F7.1°C 39.9°F4.4°C 83% 2.8 mph SSW4.5 kmh SSW 9.0 mph14.5 kmh 29.94 in1013.9 mb 0.00 in0.0 mm 0.00 in0.0 mm 0.00 in0.0 mm
06:45 AM 44.7°F7.1°C 39.9°F4.4°C 83% 2.3 mph SSW3.7 kmh SSW 9.0 mph14.5 kmh 29.93 in1013.5 mb 0.00 in0.0 mm 0.00 in0.0 mm 0.00 in0.0 mm
06:50 AM 44.7°F7.1°C 39.9°F4.4°C 83% 2.3 mph SW3.7 kmh SW 7.0 mph11.3 kmh 29.93 in1013.5 mb 0.00 in0.0 mm 0.00 in0.0 mm 0.00 in0.0 mm
06:55 AM 44.7°F7.1°C 39.9°F4.4°C 83% 2.7 mph SW4.3 kmh SW 7.0 mph11.3 kmh 29.93 in1013.5 mb 0.00 in0.0 mm 0.00 in0.0 mm 0.00 in0.0 mm
07:00 AM 44.7°F7.1°C 39.9°F4.4°C 83% 2.5 mph SW4.0 kmh SW 7.0 mph11.3 kmh 29.93 in1013.5 mb 0.00 in0.0 mm 0.00 in0.0 mm 0.00 in0.0 mm
07:05 AM 44.6°F7.0°C 39.8°F4.3°C 83% 1.6 mph SSW2.6 kmh SSW 7.0 mph11.3 kmh 29.93 in1013.5 mb 0.00 in0.0 mm 0.00 in0.0 mm 0.00 in0.0 mm
07:10 AM 44.6°F7.0°C 39.8°F4.3°C 83% 3.1 mph SSW5.0 kmh SSW 7.0 mph11.3 kmh 29.93 in1013.5 mb 0.00 in0.0 mm 0.00 in0.0 mm 0.00 in0.0 mm
07:15 AM 44.5°F6.9°C 39.7°F4.3°C 83% 3.2 mph SSW5.1 kmh SSW 6.0 mph9.7 kmh 29.93 in1013.5 mb 0.00 in0.0 mm 0.00 in0.0 mm 0.00 in0.0 mm
07:20 AM 44.3°F6.8°C 39.5°F4.2°C 83% 2.4 mph S3.9 kmh S 6.0 mph9.7 kmh 29.93 in1013.5 mb 0.00 in0.0 mm 0.00 in0.0 mm 0.00 in0.0 mm
07:25 AM 44.2°F6.8°C 39.4°F4.1°C 83% 2.3 mph S3.7 kmh S 6.0 mph9.7 kmh 29.93 in1013.5 mb 0.00 in0.0 mm 0.00 in0.0 mm 0.00 in0.0 mm
07:30 AM 44.0°F6.7°C 39.2°F4.0°C 83% 2.0 mph SSW3.2 kmh SSW 6.0 mph9.7 kmh 29.93 in1013.5 mb 0.00 in0.0 mm 0.00 in0.0 mm 0.00 in0.0 mm
07:35 AM 43.9°F6.6°C 39.4°F4.1°C 84% 2.4 mph SSW3.9 kmh SSW 5.0 mph8.0 kmh 29.93 in1013.5 mb 0.00 in0.0 mm 0.00 in0.0 mm 0.00 in0.0 mm
07:40 AM 43.9°F6.6°C 39.4°F4.1°C 84% 2.1 mph SSW3.4 kmh SSW 7.0 mph11.3 kmh 29.93 in1013.5 mb 0.00 in0.0 mm 0.00 in0.0 mm 0.00 in0.0 mm
07:45 AM 43.8°F6.6°C 39.3°F4.1°C 84% 1.9 mph SW3.1 kmh SW 7.0 mph11.3 kmh 29.93 in1013.5 mb 0.00 in0.0 mm 0.00 in0.0 mm 0.00 in0.0 mm
07:50 AM 43.7°F6.5°C 39.2°F4.0°C 84% 1.6 mph W2.6 kmh W 7.0 mph11.3 kmh 29.93 in1013.5 mb 0.00 in0.0 mm 0.00 in0.0 mm 0.00 in0.0 mm
07:55 AM 43.7°F6.5°C 39.2°F4.0°C 84% 1.3 mph W2.1 kmh W 7.0 mph11.3 kmh 29.93 in1013.5 mb 0.00 in0.0 mm 0.00 in0.0 mm 0.00 in0.0 mm
08:00 AM 43.7°F6.5°C 39.2°F4.0°C 84% 1.5 mph SW2.4 kmh SW 4.0 mph6.4 kmh 29.93 in1013.5 mb 0.00 in0.0 mm 0.00 in0.0 mm 0.00 in0.0 mm
08:05 AM 43.8°F6.6°C 39.3°F4.1°C 84% 2.0 mph W3.2 kmh W 4.0 mph6.4 kmh 29.94 in1013.9 mb 0.00 in0.0 mm 0.00 in0.0 mm 0.00 in0.0 mm
08:10 AM 43.9°F6.6°C 39.4°F4.1°C 84% 1.4 mph SW2.3 kmh SW 4.0 mph6.4 kmh 29.94 in1013.9 mb 0.00 in0.0 mm 0.00 in0.0 mm 0.00 in0.0 mm
08:15 AM 44.1°F6.7°C 39.6°F4.2°C 84% 1.2 mph WSW1.9 kmh WSW 4.0 mph6.4 kmh 29.95 in1014.2 mb 0.00 in0.0 mm 0.00 in0.0 mm 0.00 in0.0 mm
08:20 AM 44.3°F6.8°C 39.8°F4.3°C 84% 2.0 mph W3.2 kmh W 5.0 mph8.0 kmh 29.94 in1013.9 mb 0.00 in0.0 mm 0.00 in0.0 mm 0.00 in0.0 mm
08:25 AM 44.4°F6.9°C 39.9°F4.4°C 84% 1.8 mph WSW2.9 kmh WSW 5.0 mph8.0 kmh 29.94 in1013.9 mb 0.00 in0.0 mm 0.00 in0.0 mm 0.00 in0.0 mm
08:30 AM 44.4°F6.9°C 39.6°F4.2°C 83% 3.0 mph SW4.8 kmh SW 7.0 mph11.3 kmh 29.94 in1013.9 mb 0.00 in0.0 mm 0.00 in0.0 mm 0.00 in0.0 mm
08:35 AM 44.4°F6.9°C 39.6°F4.2°C 83% 2.0 mph SW3.2 kmh SW 7.0 mph11.3 kmh 29.95 in1014.2 mb 0.00 in0.0 mm 0.00 in0.0 mm 0.00 in0.0 mm
08:41 AM 44.4°F6.9°C 39.6°F4.2°C 83% 1.6 mph SW2.6 kmh SW 7.0 mph11.3 kmh 29.95 in1014.2 mb 0.00 in0.0 mm 0.00 in0.0 mm 0.00 in0.0 mm
08:45 AM 44.5°F6.9°C 40.0°F4.4°C 84% 1.5 mph SW2.4 kmh SW 7.0 mph11.3 kmh 29.95 in1014.2 mb 0.00 in0.0 mm 0.00 in0.0 mm 0.00 in0.0 mm
08:50 AM 44.4°F6.9°C 39.9°F4.4°C 84% 2.5 mph SW4.0 kmh SW 5.0 mph8.0 kmh 29.95 in1014.2 mb 0.00 in0.0 mm 0.00 in0.0 mm 0.00 in0.0 mm
08:55 AM 44.4°F6.9°C 39.9°F4.4°C 84% 1.8 mph SW2.9 kmh SW 4.0 mph6.4 kmh 29.95 in1014.2 mb 0.00 in0.0 mm 0.00 in0.0 mm 0.00 in0.0 mm
09:00 AM 44.4°F6.9°C 39.9°F4.4°C 84% 2.3 mph SW3.7 kmh SW 4.0 mph6.4 kmh 29.95 in1014.2 mb 0.00 in0.0 mm 0.00 in0.0 mm 0.00 in0.0 mm
09:06 AM 44.4°F6.9°C 39.9°F4.4°C 84% 1.3 mph WSW2.1 kmh WSW 5.0 mph8.0 kmh 29.95 in1014.2 mb 0.00 in0.0 mm 0.00 in0.0 mm 0.00 in0.0 mm
09:11 AM 44.4°F6.9°C 40.2°F4.6°C 85% 1.9 mph WSW3.1 kmh WSW 5.0 mph8.0 kmh 29.96 in1014.6 mb 0.00 in0.0 mm 0.00 in0.0 mm 0.00 in0.0 mm
09:14 AM 44.5°F6.9°C 40.3°F4.6°C 85% 2.3 mph SW3.7 kmh SW 6.0 mph9.7 kmh 29.95 in1014.2 mb 0.00 in0.0 mm 0.00 in0.0 mm 0.00 in0.0 mm
09:19 AM 44.4°F6.9°C 40.2°F4.6°C 85% 1.7 mph SW2.7 kmh SW 6.0 mph9.7 kmh 29.95 in1014.2 mb 0.00 in0.0 mm 0.00 in0.0 mm 0.00 in0.0 mm
09:24 AM 44.3°F6.8°C 40.4°F4.7°C 86% 1.3 mph SW2.1 kmh SW 6.0 mph9.7 kmh 29.95 in1014.2 mb 0.00 in0.0 mm 0.00 in0.0 mm 0.00 in0.0 mm
09:29 AM 44.1°F6.7°C 40.5°F4.7°C 87% 1.7 mph SW2.7 kmh SW 5.0 mph8.0 kmh 29.96 in1014.6 mb 0.01 in0.3 mm 0.12 in3.0 mm 0.01 in0.3 mm
09:34 AM 43.9°F6.6°C 40.5°F4.7°C 88% 1.9 mph WSW3.1 kmh WSW 5.0 mph8.0 kmh 29.96 in1014.6 mb 0.01 in0.3 mm 0.00 in0.0 mm 0.01 in0.3 mm
09:39 AM 43.8°F6.6°C 40.8°F4.9°C 89% 1.0 mph WSW1.6 kmh WSW 5.0 mph8.0 kmh 29.96 in1014.6 mb 0.02 in0.5 mm 0.12 in3.0 mm 0.02 in0.5 mm
09:44 AM 43.7°F6.5°C 40.9°F4.9°C 90% 2.0 mph SW3.2 kmh SW 5.0 mph8.0 kmh 29.96 in1014.6 mb 0.02 in0.5 mm 0.00 in0.0 mm 0.02 in0.5 mm
09:49 AM 43.7°F6.5°C 41.2°F5.1°C 91% 1.0 mph WSW1.6 kmh WSW 5.0 mph8.0 kmh 29.97 in1014.9 mb 0.03 in0.8 mm 0.12 in3.0 mm 0.03 in0.8 mm
09:54 AM 43.8°F6.6°C 41.6°F5.3°C 92% 2.5 mph WSW4.0 kmh WSW 6.0 mph9.7 kmh 29.97 in1014.9 mb 0.03 in0.8 mm 0.00 in0.0 mm 0.03 in0.8 mm
09:59 AM 43.9°F6.6°C 41.7°F5.4°C 92% 2.1 mph SW3.4 kmh SW 6.0 mph9.7 kmh 29.97 in1014.9 mb 0.03 in0.8 mm 0.00 in0.0 mm 0.03 in0.8 mm
10:04 AM 43.9°F6.6°C 42.0°F5.6°C 93% 1.5 mph SW2.4 kmh SW 6.0 mph9.7 kmh 29.97 in1014.9 mb 0.04 in1.0 mm 0.01 in0.3 mm 0.04 in1.0 mm
10:09 AM 44.1°F6.7°C 42.2°F5.7°C 93% 2.2 mph SW3.5 kmh SW 6.0 mph9.7 kmh 29.97 in1014.9 mb 0.04 in1.0 mm 0.00 in0.0 mm 0.04 in1.0 mm
10:14 AM 44.1°F6.7°C 42.4°F5.8°C 94% 2.1 mph SW3.4 kmh SW 6.0 mph9.7 kmh 29.97 in1014.9 mb 0.05 in1.3 mm 0.12 in3.0 mm 0.05 in1.3 mm
10:19 AM 44.2°F6.8°C 42.5°F5.8°C 94% 2.3 mph WSW3.7 kmh WSW 6.0 mph9.7 kmh 29.97 in1014.9 mb 0.05 in1.3 mm 0.00 in0.0 mm 0.05 in1.3 mm
10:24 AM 44.4°F6.9°C 42.7°F5.9°C 94% 4.3 mph WSW6.9 kmh WSW 6.0 mph9.7 kmh 29.97 in1014.9 mb 0.05 in1.3 mm 0.00 in0.0 mm 0.05 in1.3 mm
10:29 AM 44.6°F7.0°C 43.2°F6.2°C 95% 2.4 mph WSW3.9 kmh WSW 6.0 mph9.7 kmh 29.98 in1015.2 mb 0.05 in1.3 mm 0.00 in0.0 mm 0.06 in1.5 mm
10:34 AM 44.8°F7.1°C 43.4°F6.3°C 95% 2.2 mph W3.5 kmh W 8.0 mph12.9 kmh 29.98 in1015.2 mb 0.05 in1.3 mm 0.00 in0.0 mm 0.06 in1.5 mm
10:39 AM 45.0°F7.2°C 43.6°F6.4°C 95% 2.0 mph WSW3.2 kmh WSW 8.0 mph12.9 kmh 29.98 in1015.2 mb 0.04 in1.0 mm 0.00 in0.0 mm 0.06 in1.5 mm
10:44 AM 45.2°F7.3°C 43.9°F6.6°C 95% 2.3 mph W3.7 kmh W 8.0 mph12.9 kmh 29.98 in1015.2 mb 0.05 in1.3 mm 0.12 in3.0 mm 0.07 in1.8 mm
10:49 AM 45.4°F7.4°C 44.0°F6.7°C 95% 3.4 mph W5.5 kmh W 7.0 mph11.3 kmh 29.98 in1015.2 mb 0.04 in1.0 mm 0.00 in0.0 mm 0.07 in1.8 mm
10:54 AM 45.6°F7.6°C 44.3°F6.8°C 95% 2.3 mph W3.7 kmh W 7.0 mph11.3 kmh 29.98 in1015.2 mb 0.05 in1.3 mm 0.12 in3.0 mm 0.08 in2.0 mm
10:59 AM 45.7°F7.6°C 44.3°F6.8°C 95% 3.2 mph W5.1 kmh W 7.0 mph11.3 kmh 29.98 in1015.2 mb 0.05 in1.3 mm 0.00 in0.0 mm 0.08 in2.0 mm
11:05 AM 45.9°F7.7°C 44.5°F6.9°C 95% 4.0 mph WNW6.4 kmh WNW 10.0 mph16.1 kmh 29.98 in1015.2 mb 0.05 in1.3 mm 0.00 in0.0 mm 0.09 in2.3 mm
11:09 AM 45.9°F7.7°C 44.5°F6.9°C 95% 5.5 mph NW8.9 kmh NW 10.0 mph16.1 kmh 29.98 in1015.2 mb 0.05 in1.3 mm 0.00 in0.0 mm 0.09 in2.3 mm
11:15 AM 45.9°F7.7°C 44.2°F6.8°C 94% 5.2 mph NW8.4 kmh NW 11.0 mph17.7 kmh 29.98 in1015.2 mb 0.04 in1.0 mm 0.00 in0.0 mm 0.09 in2.3 mm
11:19 AM 45.9°F7.7°C 44.2°F6.8°C 94% 2.5 mph NW4.0 kmh NW 11.0 mph17.7 kmh 29.98 in1015.2 mb 0.05 in1.3 mm 0.15 in3.8 mm 0.10 in2.5 mm
11:25 AM 45.8°F7.7°C 44.1°F6.7°C 94% 2.2 mph NW3.5 kmh NW 11.0 mph17.7 kmh 29.98 in1015.2 mb 0.05 in1.3 mm 0.00 in0.0 mm 0.10 in2.5 mm
11:30 AM 45.6°F7.6°C 43.7°F6.5°C 93% 3.7 mph WNW6.0 kmh WNW 11.0 mph17.7 kmh 29.98 in1015.2 mb 0.04 in1.0 mm 0.00 in0.0 mm 0.10 in2.5 mm
11:35 AM 45.4°F7.4°C 43.2°F6.2°C 92% 4.2 mph WNW6.8 kmh WNW 10.0 mph16.1 kmh 29.98 in1015.2 mb 0.04 in1.0 mm 0.00 in0.0 mm 0.10 in2.5 mm
11:40 AM 45.3°F7.4°C 42.8°F6.0°C 91% 3.8 mph WNW6.1 kmh WNW 10.0 mph16.1 kmh 29.98 in1015.2 mb 0.05 in1.3 mm 0.12 in3.0 mm 0.11 in2.8 mm
11:45 AM 45.1°F7.3°C 42.9°F6.1°C 92% 3.4 mph WNW5.5 kmh WNW 10.0 mph16.1 kmh 29.99 in1015.6 mb 0.04 in1.0 mm 0.00 in0.0 mm 0.11 in2.8 mm
11:50 AM 45.1°F7.3°C 42.9°F6.1°C 92% 3.9 mph WNW6.3 kmh WNW 10.0 mph16.1 kmh 29.99 in1015.6 mb 0.04 in1.0 mm 0.00 in0.0 mm 0.11 in2.8 mm
11:55 AM 45.0°F7.2°C 43.1°F6.2°C 93% 2.3 mph NW3.7 kmh NW 10.0 mph16.1 kmh 29.99 in1015.6 mb 0.04 in1.0 mm 0.00 in0.0 mm 0.12 in3.0 mm
12:00 PM 45.1°F7.3°C 43.2°F6.2°C 93% 1.1 mph NW1.8 kmh NW 9.0 mph14.5 kmh 29.99 in1015.6 mb 0.04 in1.0 mm 0.00 in0.0 mm 0.12 in3.0 mm
12:05 PM 45.0°F7.2°C 43.1°F6.2°C 93% 2.4 mph WNW3.9 kmh WNW 8.0 mph12.9 kmh 29.99 in1015.6 mb 0.04 in1.0 mm 0.00 in0.0 mm 0.13 in3.3 mm
12:10 PM 44.9°F7.2°C 43.2°F6.2°C 94% 3.8 mph WNW6.1 kmh WNW 6.0 mph9.7 kmh 29.99 in1015.6 mb 0.04 in1.0 mm 0.00 in0.0 mm 0.13 in3.3 mm
12:15 PM 44.9°F7.2°C 43.0°F6.1°C 93% 5.4 mph WNW8.7 kmh WNW 10.0 mph16.1 kmh 29.99 in1015.6 mb 0.05 in1.3 mm 0.12 in3.0 mm 0.14 in3.6 mm
12:20 PM 44.8°F7.1°C 42.3°F5.7°C 91% 8.1 mph WNW13.0 kmh WNW 15.0 mph24.1 kmh 29.99 in1015.6 mb 0.04 in1.0 mm 0.00 in0.0 mm 0.14 in3.6 mm
12:25 PM 44.8°F7.1°C 42.3°F5.7°C 91% 5.3 mph WNW8.5 kmh WNW 15.0 mph24.1 kmh 29.99 in1015.6 mb 0.04 in1.0 mm 0.00 in0.0 mm 0.14 in3.6 mm
12:30 PM 44.8°F7.1°C 42.0°F5.6°C 90% 6.5 mph WNW10.5 kmh WNW 15.0 mph24.1 kmh 29.99 in1015.6 mb 0.04 in1.0 mm 0.00 in0.0 mm 0.14 in3.6 mm
12:35 PM 44.6°F7.0°C 41.8°F5.4°C 90% 4.1 mph WNW6.6 kmh WNW 15.0 mph24.1 kmh 29.99 in1015.6 mb 0.04 in1.0 mm 0.00 in0.0 mm 0.14 in3.6 mm
12:40 PM 44.6°F7.0°C 42.1°F5.6°C 91% 2.4 mph NW3.9 kmh NW 13.0 mph20.9 kmh 29.99 in1015.6 mb 0.03 in0.8 mm 0.00 in0.0 mm 0.14 in3.6 mm
12:45 PM 44.5°F6.9°C 42.3°F5.7°C 92% 3.0 mph NW4.8 kmh NW 12.0 mph19.3 kmh 29.99 in1015.6 mb 0.03 in0.8 mm 0.00 in0.0 mm 0.14 in3.6 mm
12:50 PM 44.4°F6.9°C 42.2°F5.7°C 92% 3.8 mph NW6.1 kmh NW 11.0 mph17.7 kmh 29.98 in1015.2 mb 0.03 in0.8 mm 0.00 in0.0 mm 0.14 in3.6 mm
12:55 PM 44.3°F6.8°C 42.1°F5.6°C 92% 4.9 mph WNW7.9 kmh WNW 11.0 mph17.7 kmh 29.98 in1015.2 mb 0.03 in0.8 mm 0.00 in0.0 mm 0.15 in3.8 mm
01:00 PM 44.2°F6.8°C 42.0°F5.6°C 92% 4.4 mph NW7.1 kmh NW 13.0 mph20.9 kmh 29.98 in1015.2 mb 0.03 in0.8 mm 0.00 in0.0 mm 0.15 in3.8 mm
01:05 PM 44.0°F6.7°C 41.8°F5.4°C 92% 5.9 mph WNW9.5 kmh WNW 14.0 mph22.5 kmh 29.99 in1015.6 mb 0.02 in0.5 mm 0.00 in0.0 mm 0.15 in3.8 mm
01:10 PM 43.7°F6.5°C 41.5°F5.3°C 92% 5.8 mph NW9.3 kmh NW 14.0 mph22.5 kmh 29.98 in1015.2 mb 0.02 in0.5 mm 0.00 in0.0 mm 0.15 in3.8 mm
01:15 PM 43.6°F6.4°C 41.4°F5.2°C 92% 3.0 mph NW4.8 kmh NW 14.0 mph22.5 kmh 29.98 in1015.2 mb 0.01 in0.3 mm 0.00 in0.0 mm 0.15 in3.8 mm
01:20 PM 43.1°F6.2°C 40.6°F4.8°C 91% 6.9 mph NW11.1 kmh NW 14.0 mph22.5 kmh 29.98 in1015.2 mb 0.01 in0.3 mm 0.00 in0.0 mm 0.15 in3.8 mm
01:25 PM 42.2°F5.7°C 39.7°F4.3°C 91% 6.8 mph NW10.9 kmh NW 14.0 mph22.5 kmh 29.99 in1015.6 mb 0.01 in0.3 mm 0.00 in0.0 mm 0.15 in3.8 mm
01:30 PM 41.7°F5.4°C 39.5°F4.2°C 92% 3.1 mph NW5.0 kmh NW 14.0 mph22.5 kmh 29.99 in1015.6 mb 0.01 in0.3 mm 0.00 in0.0 mm 0.15 in3.8 mm
01:35 PM 41.6°F5.3°C 39.4°F4.1°C 92% 4.2 mph WNW6.8 kmh WNW 14.0 mph22.5 kmh 29.99 in1015.6 mb 0.01 in0.3 mm 0.00 in0.0 mm 0.15 in3.8 mm
01:40 PM 41.5°F5.3°C 39.3°F4.1°C 92% 3.6 mph NW5.8 kmh NW 14.0 mph22.5 kmh 29.99 in1015.6 mb 0.01 in0.3 mm 0.00 in0.0 mm 0.15 in3.8 mm
01:45 PM 41.4°F5.2°C 38.9°F3.8°C 91% 4.2 mph NW6.8 kmh NW 11.0 mph17.7 kmh 29.99 in1015.6 mb 0.01 in0.3 mm 0.00 in0.0 mm 0.15 in3.8 mm
01:50 PM 41.7°F5.4°C 39.5°F4.2°C 92% 5.0 mph NW8.0 kmh NW 11.0 mph17.7 kmh 30.00 in1015.9 mb 0.01 in0.3 mm 0.00 in0.0 mm 0.15 in3.8 mm
01:55 PM 41.5°F5.3°C 39.1°F3.9°C 91% 4.6 mph NW7.4 kmh NW 12.0 mph19.3 kmh 30.00 in1015.9 mb 0.00 in0.0 mm 0.00 in0.0 mm 0.15 in3.8 mm
02:00 PM 41.4°F5.2°C 38.9°F3.8°C 91% 5.6 mph NW9.0 kmh NW 12.0 mph19.3 kmh 29.99 in1015.6 mb 0.00 in0.0 mm 0.00 in0.0 mm 0.15 in3.8 mm
02:05 PM 41.2°F5.1°C 38.4°F3.6°C 90% 6.8 mph NW10.9 kmh NW 14.0 mph22.5 kmh 30.00 in1015.9 mb 0.00 in0.0 mm 0.00 in0.0 mm 0.15 in3.8 mm
02:10 PM 41.1°F5.1°C 38.6°F3.7°C 91% 4.4 mph NW7.1 kmh NW 14.0 mph22.5 kmh 29.99 in1015.6 mb 0.00 in0.0 mm 0.00 in0.0 mm 0.15 in3.8 mm
02:15 PM 41.1°F5.1°C 38.3°F3.5°C 90% 6.8 mph NW10.9 kmh NW 14.0 mph22.5 kmh 30.00 in1015.9 mb 0.00 in0.0 mm 0.00 in0.0 mm 0.15 in3.8 mm
02:20 PM 41.1°F5.1°C 38.1°F3.4°C 89% 5.8 mph NW9.3 kmh NW 14.0 mph22.5 kmh 30.00 in1015.9 mb 0.00 in0.0 mm 0.00 in0.0 mm 0.15 in3.8 mm
02:25 PM 41.2°F5.1°C 38.2°F3.4°C 89% 4.5 mph WNW7.2 kmh WNW 13.0 mph20.9 kmh 30.00 in1015.9 mb 0.00 in0.0 mm 0.00 in0.0 mm 0.15 in3.8 mm
02:30 PM 41.2°F5.1°C 37.9°F3.3°C 88% 4.1 mph W6.6 kmh W 13.0 mph20.9 kmh 30.00 in1015.9 mb 0.00 in0.0 mm 0.00 in0.0 mm 0.15 in3.8 mm
02:35 PM 41.5°F5.3°C 37.6°F3.1°C 86% 5.2 mph WNW8.4 kmh WNW 13.0 mph20.9 kmh 30.00 in1015.9 mb 0.00 in0.0 mm 0.00 in0.0 mm 0.15 in3.8 mm
02:40 PM 41.3°F5.2°C 37.1°F2.8°C 85% 3.7 mph NW6.0 kmh NW 13.0 mph20.9 kmh 30.00 in1015.9 mb 0.00 in0.0 mm 0.00 in0.0 mm 0.15 in3.8 mm
02:45 PM 41.7°F5.4°C 37.2°F2.9°C 84% 4.5 mph WNW7.2 kmh WNW 12.0 mph19.3 kmh 30.00 in1015.9 mb 0.00 in0.0 mm 0.00 in0.0 mm 0.15 in3.8 mm
02:50 PM 41.6°F5.3°C 35.9°F2.2°C 80% 3.9 mph NW6.3 kmh NW 12.0 mph19.3 kmh 30.00 in1015.9 mb 0.00 in0.0 mm 0.00 in0.0 mm 0.15 in3.8 mm
02:55 PM 41.2°F5.1°C 35.5°F1.9°C 80% 5.8 mph NW9.3 kmh NW 13.0 mph20.9 kmh 30.00 in1015.9 mb 0.00 in0.0 mm 0.00 in0.0 mm 0.15 in3.8 mm
03:00 PM 41.2°F5.1°C 35.8°F2.1°C 81% 7.4 mph WNW11.9 kmh WNW 13.0 mph20.9 kmh 30.01 in1016.3 mb 0.00 in0.0 mm 0.00 in0.0 mm 0.15 in3.8 mm
03:05 PM 41.3°F5.2°C 35.0°F1.7°C 78% 6.9 mph WNW11.1 kmh WNW 14.0 mph22.5 kmh 30.01 in1016.3 mb 0.00 in0.0 mm 0.00 in0.0 mm 0.15 in3.8 mm
03:10 PM 41.8°F5.4°C 35.4°F1.9°C 78% 5.3 mph WNW8.5 kmh WNW 14.0 mph22.5 kmh 30.01 in1016.3 mb 0.00 in0.0 mm 0.00 in0.0 mm 0.15 in3.8 mm
03:14 PM 42.1°F5.6°C 35.1°F1.7°C 76% 6.5 mph NW10.5 kmh NW 14.0 mph22.5 kmh 30.01 in1016.3 mb 0.00 in0.0 mm 0.00 in0.0 mm 0.15 in3.8 mm
03:19 PM 41.6°F5.3°C 34.3°F1.3°C 75% 8.1 mph WNW13.0 kmh WNW 15.0 mph24.1 kmh 30.01 in1016.3 mb 0.00 in0.0 mm 0.00 in0.0 mm 0.15 in3.8 mm
03:24 PM 41.4°F5.2°C 34.1°F1.2°C 75% 5.8 mph NW9.3 kmh NW 15.0 mph24.1 kmh 30.01 in1016.3 mb 0.00 in0.0 mm 0.00 in0.0 mm 0.15 in3.8 mm
03:29 PM 41.4°F5.2°C 34.5°F1.4°C 76% 5.4 mph NW8.7 kmh NW 15.0 mph24.1 kmh 30.01 in1016.3 mb 0.00 in0.0 mm 0.00 in0.0 mm 0.15 in3.8 mm
03:34 PM 41.5°F5.3°C 33.6°F0.9°C 73% 6.6 mph NW10.6 kmh NW 15.0 mph24.1 kmh 30.01 in1016.3 mb 0.00 in0.0 mm 0.00 in0.0 mm 0.15 in3.8 mm
03:39 PM 42.1°F5.6°C 33.0°F0.6°C 70% 5.3 mph NW8.5 kmh NW 15.0 mph24.1 kmh 30.01 in1016.3 mb 0.00 in0.0 mm 0.00 in0.0 mm 0.15 in3.8 mm
03:44 PM 42.2°F5.7°C 32.8°F0.4°C 69% 6.1 mph NW9.8 kmh NW 13.0 mph20.9 kmh 30.01 in1016.3 mb 0.00 in0.0 mm 0.00 in0.0 mm 0.15 in3.8 mm
03:49 PM 42.2°F5.7°C 32.8°F0.4°C 69% 3.5 mph NW5.6 kmh NW 13.0 mph20.9 kmh 30.01 in1016.3 mb 0.00 in0.0 mm 0.00 in0.0 mm 0.15 in3.8 mm
03:54 PM 42.3°F5.7°C 32.2°F0.1°C 67% 6.3 mph WNW10.1 kmh WNW 16.0 mph25.7 kmh 30.01 in1016.3 mb 0.00 in0.0 mm 0.00 in0.0 mm 0.15 in3.8 mm
03:59 PM 42.3°F5.7°C 31.5°F-0.3°C 65% 7.4 mph NW11.9 kmh NW 16.0 mph25.7 kmh 30.01 in1016.3 mb 0.00 in0.0 mm 0.00 in0.0 mm 0.15 in3.8 mm
04:04 PM 42.5°F5.8°C 32.0°F0.0°C 66% 5.6 mph WNW9.0 kmh WNW 16.0 mph25.7 kmh 30.01 in1016.3 mb 0.00 in0.0 mm 0.00 in0.0 mm 0.15 in3.8 mm
04:09 PM 42.5°F5.8°C 32.0°F0.0°C 66% 7.1 mph NW11.4 kmh NW 16.0 mph25.7 kmh 30.01 in1016.3 mb 0.00 in0.0 mm 0.00 in0.0 mm 0.15 in3.8 mm
04:14 PM 42.4°F5.8°C 31.6°F-0.2°C 65% 5.6 mph NW9.0 kmh NW 14.0 mph22.5 kmh 30.01 in1016.3 mb 0.00 in0.0 mm 0.00 in0.0 mm 0.15 in3.8 mm
04:19 PM 42.7°F5.9°C 31.7°F-0.2°C 65% 2.2 mph NW3.5 kmh NW 14.0 mph22.5 kmh 30.01 in1016.3 mb 0.00 in0.0 mm 0.00 in0.0 mm 0.15 in3.8 mm
04:24 PM 42.7°F5.9°C 31.1°F-0.5°C 63% 2.1 mph NW3.4 kmh NW 14.0 mph22.5 kmh 30.01 in1016.3 mb 0.00 in0.0 mm 0.00 in0.0 mm 0.15 in3.8 mm
04:29 PM 42.5°F5.8°C 30.9°F-0.6°C 63% 5.4 mph NW8.7 kmh NW 12.0 mph19.3 kmh 30.01 in1016.3 mb 0.00 in0.0 mm 0.00 in0.0 mm 0.15 in3.8 mm
04:34 PM 42.4°F5.8°C 30.4°F-0.9°C 62% 6.7 mph NW10.8 kmh NW 12.0 mph19.3 kmh 30.01 in1016.3 mb 0.00 in0.0 mm 0.00 in0.0 mm 0.15 in3.8 mm
04:39 PM 42.4°F5.8°C 30.4°F-0.9°C 62% 4.4 mph NW7.1 kmh NW 12.0 mph19.3 kmh 30.01 in1016.3 mb 0.00 in0.0 mm 0.00 in0.0 mm 0.15 in3.8 mm
04:44 PM 42.7°F5.9°C 30.7°F-0.7°C 62% 3.9 mph WNW6.3 kmh WNW 12.0 mph19.3 kmh 30.01 in1016.3 mb 0.00 in0.0 mm 0.00 in0.0 mm 0.15 in3.8 mm
04:49 PM 42.4°F5.8°C 30.0°F-1.1°C 61% 5.1 mph WNW8.2 kmh WNW 12.0 mph19.3 kmh 30.02 in1016.6 mb 0.00 in0.0 mm 0.00 in0.0 mm 0.15 in3.8 mm
04:54 PM 42.2°F5.7°C 30.2°F-1.0°C 62% 5.4 mph NW8.7 kmh NW 15.0 mph24.1 kmh 30.02 in1016.6 mb 0.00 in0.0 mm 0.00 in0.0 mm 0.15 in3.8 mm
04:59 PM 42.1°F5.6°C 29.7°F-1.3°C 61% 3.5 mph WNW5.6 kmh WNW 15.0 mph24.1 kmh 30.02 in1016.6 mb 0.00 in0.0 mm 0.00 in0.0 mm 0.15 in3.8 mm
05:04 PM 42.2°F5.7°C 29.8°F-1.2°C 61% 3.0 mph NW4.8 kmh NW 15.0 mph24.1 kmh 30.02 in1016.6 mb 0.00 in0.0 mm 0.00 in0.0 mm 0.15 in3.8 mm
05:09 PM 42.0°F5.6°C 29.2°F-1.6°C 60% 2.3 mph WNW3.7 kmh WNW 15.0 mph24.1 kmh 30.02 in1016.6 mb 0.00 in0.0 mm 0.00 in0.0 mm 0.15 in3.8 mm
05:14 PM 41.9°F5.5°C 28.7°F-1.8°C 59% 4.6 mph NW7.4 kmh NW 12.0 mph19.3 kmh 30.02 in1016.6 mb 0.00 in0.0 mm 0.00 in0.0 mm 0.15 in3.8 mm
05:19 PM 41.7°F5.4°C 28.1°F-2.2°C 58% 4.7 mph NW7.6 kmh NW 12.0 mph19.3 kmh 30.02 in1016.6 mb 0.00 in0.0 mm 0.00 in0.0 mm 0.15 in3.8 mm
05:24 PM 41.5°F5.3°C 28.3°F-2.1°C 59% 5.5 mph NW8.9 kmh NW 12.0 mph19.3 kmh 30.02 in1016.6 mb 0.00 in0.0 mm 0.00 in0.0 mm 0.15 in3.8 mm
05:29 PM 41.5°F5.3°C 28.7°F-1.8°C 60% 2.6 mph NW4.2 kmh NW 11.0 mph17.7 kmh 30.03 in1016.9 mb 0.00 in0.0 mm 0.00 in0.0 mm 0.15 in3.8 mm
05:34 PM 41.2°F5.1°C 28.8°F-1.8°C 61% 4.2 mph NW6.8 kmh NW 11.0 mph17.7 kmh 30.03 in1016.9 mb 0.00 in0.0 mm 0.00 in0.0 mm 0.15 in3.8 mm
05:39 PM 41.0°F5.0°C 28.6°F-1.9°C 61% 3.8 mph NW6.1 kmh NW 11.0 mph17.7 kmh 30.03 in1016.9 mb 0.00 in0.0 mm 0.00 in0.0 mm 0.15 in3.8 mm
05:44 PM 40.8°F4.9°C 28.5°F-1.9°C 61% 3.3 mph WNW5.3 kmh WNW 11.0 mph17.7 kmh 30.03 in1016.9 mb 0.00 in0.0 mm 0.00 in0.0 mm 0.15 in3.8 mm
05:49 PM 40.5°F4.7°C 29.0°F-1.7°C 63% 2.9 mph WNW4.7 kmh WNW 11.0 mph17.7 kmh 30.04 in1017.3 mb 0.00 in0.0 mm 0.00 in0.0 mm 0.15 in3.8 mm
05:54 PM 40.2°F4.6°C 28.7°F-1.8°C 63% 3.4 mph WNW5.5 kmh WNW 11.0 mph17.7 kmh 30.04 in1017.3 mb 0.00 in0.0 mm 0.00 in0.0 mm 0.15 in3.8 mm
05:59 PM 39.9°F4.4°C 28.3°F-2.1°C 63% 2.3 mph WNW3.7 kmh WNW 10.0 mph16.1 kmh 30.05 in1017.6 mb 0.00 in0.0 mm 0.00 in0.0 mm 0.15 in3.8 mm
06:04 PM 39.6°F4.2°C 27.7°F-2.4°C 62% 3.2 mph WNW5.1 kmh WNW 12.0 mph19.3 kmh 30.06 in1017.9 mb 0.00 in0.0 mm 0.00 in0.0 mm 0.15 in3.8 mm
06:09 PM 39.2°F4.0°C 27.3°F-2.6°C 62% 2.5 mph WNW4.0 kmh WNW 12.0 mph19.3 kmh 30.06 in1017.9 mb 0.00 in0.0 mm 0.00 in0.0 mm 0.15 in3.8 mm
06:14 PM 39.0°F3.9°C 27.5°F-2.5°C 63% 4.9 mph WNW7.9 kmh WNW 12.0 mph19.3 kmh 30.07 in1018.3 mb 0.00 in0.0 mm 0.00 in0.0 mm 0.15 in3.8 mm
06:19 PM 38.8°F3.8°C 27.7°F-2.4°C 64% 3.8 mph WNW6.1 kmh WNW 12.0 mph19.3 kmh 30.07 in1018.3 mb 0.00 in0.0 mm 0.00 in0.0 mm 0.15 in3.8 mm
06:24 PM 38.6°F3.7°C 27.5°F-2.5°C 64% 2.5 mph W4.0 kmh W 9.0 mph14.5 kmh 30.07 in1018.3 mb 0.00 in0.0 mm 0.00 in0.0 mm 0.15 in3.8 mm
06:29 PM 38.2°F3.4°C 27.1°F-2.7°C 64% 3.7 mph W6.0 kmh W 9.0 mph14.5 kmh 30.07 in1018.3 mb 0.00 in0.0 mm 0.00 in0.0 mm 0.15 in3.8 mm
06:34 PM 38.0°F3.3°C 26.6°F-3.0°C 63% 4.1 mph WNW6.6 kmh WNW 11.0 mph17.7 kmh 30.07 in1018.3 mb 0.00 in0.0 mm 0.00 in0.0 mm 0.15 in3.8 mm
06:39 PM 37.8°F3.2°C 26.7°F-2.9°C 64% 4.5 mph WNW7.2 kmh WNW 11.0 mph17.7 kmh 30.08 in1018.6 mb 0.00 in0.0 mm 0.00 in0.0 mm 0.15 in3.8 mm
06:44 PM 37.6°F3.1°C 26.6°F-3.0°C 64% 2.4 mph NW3.9 kmh NW 11.0 mph17.7 kmh 30.07 in1018.3 mb 0.00 in0.0 mm 0.00 in0.0 mm 0.15 in3.8 mm
06:49 PM 37.5°F3.1°C 26.0°F-3.3°C 63% 5.3 mph WNW8.5 kmh WNW 11.0 mph17.7 kmh 30.08 in1018.6 mb 0.00 in0.0 mm 0.00 in0.0 mm 0.15 in3.8 mm
06:54 PM 37.2°F2.9°C 26.2°F-3.2°C 64% 3.5 mph WNW5.6 kmh WNW 10.0 mph16.1 kmh 30.09 in1019.0 mb 0.00 in0.0 mm 0.00 in0.0 mm 0.15 in3.8 mm
06:59 PM 37.1°F2.8°C 25.7°F-3.5°C 63% 6.1 mph W9.8 kmh W 13.0 mph20.9 kmh 30.10 in1019.3 mb 0.00 in0.0 mm 0.00 in0.0 mm 0.15 in3.8 mm
07:04 PM 37.0°F2.8°C 25.3°F-3.7°C 62% 5.3 mph WNW8.5 kmh WNW 15.0 mph24.1 kmh 30.10 in1019.3 mb 0.00 in0.0 mm 0.00 in0.0 mm 0.15 in3.8 mm
07:09 PM 36.9°F2.7°C 24.4°F-4.2°C 60% 5.6 mph WNW9.0 kmh WNW 15.0 mph24.1 kmh 30.10 in1019.3 mb 0.00 in0.0 mm 0.00 in0.0 mm 0.15 in3.8 mm
07:14 PM 36.7°F2.6°C 24.2°F-4.3°C 60% 4.2 mph WNW6.8 kmh WNW 15.0 mph24.1 kmh 30.10 in1019.3 mb 0.00 in0.0 mm 0.00 in0.0 mm 0.15 in3.8 mm
07:19 PM 36.5°F2.5°C 24.4°F-4.2°C 61% 2.7 mph WNW4.3 kmh WNW 15.0 mph24.1 kmh 30.10 in1019.3 mb 0.00 in0.0 mm 0.00 in0.0 mm 0.15 in3.8 mm
07:24 PM 36.4°F2.4°C 23.9°F-4.5°C 60% 3.8 mph WNW6.1 kmh WNW 11.0 mph17.7 kmh 30.10 in1019.3 mb 0.00 in0.0 mm 0.00 in0.0 mm 0.15 in3.8 mm
07:29 PM 36.3°F2.4°C 23.7°F-4.6°C 60% 5.0 mph NW8.0 kmh NW 9.0 mph14.5 kmh 30.11 in1019.6 mb 0.00 in0.0 mm 0.00 in0.0 mm 0.15 in3.8 mm
07:34 PM 36.1°F2.3°C 23.6°F-4.7°C 60% 3.4 mph WNW5.5 kmh WNW 9.0 mph14.5 kmh 30.11 in1019.6 mb 0.00 in0.0 mm 0.00 in0.0 mm 0.15 in3.8 mm
07:39 PM 35.9°F2.2°C 23.8°F-4.6°C 61% 4.6 mph NW7.4 kmh NW 9.0 mph14.5 kmh 30.10 in1019.3 mb 0.00 in0.0 mm 0.00 in0.0 mm 0.15 in3.8 mm
07:44 PM 35.8°F2.1°C 23.7°F-4.6°C 61% 3.8 mph NW6.1 kmh NW 9.0 mph14.5 kmh 30.11 in1019.6 mb 0.00 in0.0 mm 0.00 in0.0 mm 0.15 in3.8 mm
07:49 PM 35.5°F1.9°C 23.8°F-4.6°C 62% 3.1 mph NW5.0 kmh NW 9.0 mph14.5 kmh 30.11 in1019.6 mb 0.00 in0.0 mm 0.00 in0.0 mm 0.15 in3.8 mm
07:54 PM 35.3°F1.8°C 24.0°F-4.4°C 63% 3.3 mph WNW5.3 kmh WNW 9.0 mph14.5 kmh 30.11 in1019.6 mb 0.00 in0.0 mm 0.00 in0.0 mm 0.15 in3.8 mm
07:59 PM 35.1°F1.7°C 23.8°F-4.6°C 63% 4.5 mph NW7.2 kmh NW 10.0 mph16.1 kmh 30.11 in1019.6 mb 0.00 in0.0 mm 0.00 in0.0 mm 0.15 in3.8 mm
08:04 PM 34.9°F1.6°C 23.6°F-4.7°C 63% 2.7 mph NW4.3 kmh NW 11.0 mph17.7 kmh 30.11 in1019.6 mb 0.00 in0.0 mm 0.00 in0.0 mm 0.15 in3.8 mm
08:09 PM 34.7°F1.5°C 23.8°F-4.6°C 64% 2.2 mph WNW3.5 kmh WNW 11.0 mph17.7 kmh 30.12 in1020.0 mb 0.00 in0.0 mm 0.00 in0.0 mm 0.15 in3.8 mm
08:14 PM 34.4°F1.3°C 23.9°F-4.5°C 65% 2.2 mph NW3.5 kmh NW 11.0 mph17.7 kmh 30.12 in1020.0 mb 0.00 in0.0 mm 0.00 in0.0 mm 0.15 in3.8 mm
08:19 PM 34.3°F1.3°C 23.5°F-4.7°C 64% 3.3 mph NW5.3 kmh NW 11.0 mph17.7 kmh 30.12 in1020.0 mb 0.00 in0.0 mm 0.00 in0.0 mm 0.15 in3.8 mm
08:24 PM 34.1°F1.2°C 23.6°F-4.7°C 65% 2.6 mph WNW4.2 kmh WNW 10.0 mph16.1 kmh 30.13 in1020.3 mb 0.00 in0.0 mm 0.00 in0.0 mm 0.15 in3.8 mm
08:29 PM 34.0°F1.1°C 23.5°F-4.7°C 65% 3.7 mph WNW6.0 kmh WNW 10.0 mph16.1 kmh 30.13 in1020.3 mb 0.00 in0.0 mm 0.00 in0.0 mm 0.15 in3.8 mm
08:34 PM 33.9°F1.1°C 23.4°F-4.8°C 65% 3.3 mph NW5.3 kmh NW 12.0 mph19.3 kmh 30.14 in1020.7 mb 0.00 in0.0 mm 0.00 in0.0 mm 0.15 in3.8 mm
08:39 PM 33.7°F0.9°C 23.3°F-4.8°C 65% 2.5 mph WNW4.0 kmh WNW 12.0 mph19.3 kmh 30.14 in1020.7 mb 0.00 in0.0 mm 0.00 in0.0 mm 0.15 in3.8 mm
08:44 PM 33.6°F0.9°C 22.7°F-5.2°C 64% 3.3 mph WNW5.3 kmh WNW 12.0 mph19.3 kmh 30.14 in1020.7 mb 0.00 in0.0 mm 0.00 in0.0 mm 0.15 in3.8 mm
08:49 PM 33.4°F0.8°C 22.6°F-5.2°C 64% 4.4 mph NW7.1 kmh NW 11.0 mph17.7 kmh 30.14 in1020.7 mb 0.00 in0.0 mm 0.00 in0.0 mm 0.15 in3.8 mm
08:54 PM 33.3°F0.7°C 22.5°F-5.3°C 64% 3.7 mph NW6.0 kmh NW 11.0 mph17.7 kmh 30.14 in1020.7 mb 0.00 in0.0 mm 0.00 in0.0 mm 0.15 in3.8 mm
08:59 PM 33.2°F0.7°C 22.4°F-5.3°C 64% 3.6 mph NW5.8 kmh NW 8.0 mph12.9 kmh 30.14 in1020.7 mb 0.00 in0.0 mm 0.00 in0.0 mm 0.15 in3.8 mm
09:04 PM 33.1°F0.6°C 22.2°F-5.4°C 64% 3.1 mph NW5.0 kmh NW 9.0 mph14.5 kmh 30.14 in1020.7 mb 0.00 in0.0 mm 0.00 in0.0 mm 0.15 in3.8 mm
09:09 PM 32.9°F0.5°C 21.7°F-5.7°C 63% 3.5 mph NW5.6 kmh NW 9.0 mph14.5 kmh 30.14 in1020.7 mb 0.00 in0.0 mm 0.00 in0.0 mm 0.15 in3.8 mm
09:13 PM 32.9°F0.5°C 21.7°F-5.7°C 63% 5.6 mph NW9.0 kmh NW 11.0 mph17.7 kmh 30.14 in1020.7 mb 0.00 in0.0 mm 0.00 in0.0 mm 0.15 in3.8 mm
09:18 PM 32.8°F0.4°C 21.6°F-5.8°C 63% 4.2 mph WNW6.8 kmh WNW 11.0 mph17.7 kmh 30.14 in1020.7 mb 0.00 in0.0 mm 0.00 in0.0 mm 0.15 in3.8 mm
09:23 PM 32.6°F0.3°C 21.5°F-5.8°C 63% 4.1 mph WNW6.6 kmh WNW 11.0 mph17.7 kmh 30.14 in1020.7 mb 0.00 in0.0 mm 0.00 in0.0 mm 0.15 in3.8 mm
09:28 PM 32.5°F0.3°C 21.4°F-5.9°C 63% 5.1 mph NW8.2 kmh NW 11.0 mph17.7 kmh 30.14 in1020.7 mb 0.00 in0.0 mm 0.00 in0.0 mm 0.15 in3.8 mm
09:33 PM 32.3°F0.2°C 21.2°F-6.0°C 63% 3.8 mph NW6.1 kmh NW 10.0 mph16.1 kmh 30.14 in1020.7 mb 0.00 in0.0 mm 0.00 in0.0 mm 0.15 in3.8 mm
09:38 PM 32.2°F0.1°C 21.0°F-6.1°C 63% 2.1 mph NW3.4 kmh NW 10.0 mph16.1 kmh 30.14 in1020.7 mb 0.00 in0.0 mm 0.00 in0.0 mm 0.15 in3.8 mm
09:43 PM 32.1°F0.1°C 21.0°F-6.1°C 63% 4.3 mph NW6.9 kmh NW 10.0 mph16.1 kmh 30.15 in1021.0 mb 0.00 in0.0 mm 0.00 in0.0 mm 0.15 in3.8 mm
09:48 PM 32.0°F0.0°C 20.8°F-6.2°C 63% 3.0 mph NW4.8 kmh NW 10.0 mph16.1 kmh 30.15 in1021.0 mb 0.00 in0.0 mm 0.00 in0.0 mm 0.15 in3.8 mm
09:53 PM 31.8°F-0.1°C 20.7°F-6.3°C 63% 2.3 mph NW3.7 kmh NW 10.0 mph16.1 kmh 30.15 in1021.0 mb 0.00 in0.0 mm 0.00 in0.0 mm 0.15 in3.8 mm
09:58 PM 31.7°F-0.2°C 20.5°F-6.4°C 63% 2.2 mph NW3.5 kmh NW 11.0 mph17.7 kmh 30.15 in1021.0 mb 0.00 in0.0 mm 0.00 in0.0 mm 0.15 in3.8 mm
10:03 PM 31.4°F-0.3°C 20.7°F-6.3°C 64% 1.4 mph NW2.3 kmh NW 11.0 mph17.7 kmh 30.14 in1020.7 mb 0.00 in0.0 mm 0.00 in0.0 mm 0.15 in3.8 mm
10:08 PM 31.3°F-0.4°C 20.6°F-6.3°C 64% 3.0 mph WNW4.8 kmh WNW 11.0 mph17.7 kmh 30.14 in1020.7 mb 0.00 in0.0 mm 0.00 in0.0 mm 0.15 in3.8 mm
10:13 PM 31.2°F-0.4°C 20.5°F-6.4°C 64% 2.2 mph NW3.5 kmh NW 11.0 mph17.7 kmh 30.14 in1020.7 mb 0.00 in0.0 mm 0.00 in0.0 mm 0.15 in3.8 mm
10:18 PM 31.1°F-0.5°C 20.0°F-6.7°C 63% 3.3 mph NW5.3 kmh NW 10.0 mph16.1 kmh 30.14 in1020.7 mb 0.00 in0.0 mm 0.00 in0.0 mm 0.15 in3.8 mm
10:23 PM 31.0°F-0.6°C 19.9°F-6.7°C 63% 3.2 mph NW5.1 kmh NW 11.0 mph17.7 kmh 30.14 in1020.7 mb 0.00 in0.0 mm 0.00 in0.0 mm 0.15 in3.8 mm
10:28 PM 30.9°F-0.6°C 19.8°F-6.8°C 63% 5.7 mph NW9.2 kmh NW 11.0 mph17.7 kmh 30.14 in1020.7 mb 0.00 in0.0 mm 0.00 in0.0 mm 0.15 in3.8 mm
10:33 PM 30.8°F-0.7°C 19.7°F-6.8°C 63% 2.6 mph NNW4.2 kmh NNW 11.0 mph17.7 kmh 30.14 in1020.7 mb 0.00 in0.0 mm 0.00 in0.0 mm 0.15 in3.8 mm
10:38 PM 30.7°F-0.7°C 19.6°F-6.9°C 63% 5.6 mph NW9.0 kmh NW 12.0 mph19.3 kmh 30.14 in1020.7 mb 0.00 in0.0 mm 0.00 in0.0 mm 0.15 in3.8 mm
10:43 PM 30.5°F-0.8°C 19.5°F-6.9°C 63% 4.4 mph NW7.1 kmh NW 12.0 mph19.3 kmh 30.14 in1020.7 mb 0.00 in0.0 mm 0.00 in0.0 mm 0.15 in3.8 mm
10:48 PM 30.5°F-0.8°C 19.1°F-7.2°C 62% 4.3 mph NW6.9 kmh NW 12.0 mph19.3 kmh 30.14 in1020.7 mb 0.00 in0.0 mm 0.00 in0.0 mm 0.15 in3.8 mm
10:53 PM 30.3°F-0.9°C 18.9°F-7.3°C 62% 3.3 mph NW5.3 kmh NW 14.0 mph22.5 kmh 30.14 in1020.7 mb 0.00 in0.0 mm 0.00 in0.0 mm 0.15 in3.8 mm
10:58 PM 30.2°F-1.0°C 18.4°F-7.6°C 61% 3.3 mph NW5.3 kmh NW 14.0 mph22.5 kmh 30.14 in1020.7 mb 0.00 in0.0 mm 0.00 in0.0 mm 0.15 in3.8 mm
11:03 PM 30.1°F-1.1°C 18.3°F-7.6°C 61% 3.8 mph NW6.1 kmh NW 14.0 mph22.5 kmh 30.15 in1021.0 mb 0.00 in0.0 mm 0.00 in0.0 mm 0.15 in3.8 mm
11:08 PM 30.0°F-1.1°C 18.2°F-7.7°C 61% 3.5 mph NW5.6 kmh NW 14.0 mph22.5 kmh 30.15 in1021.0 mb 0.00 in0.0 mm 0.00 in0.0 mm 0.15 in3.8 mm
11:13 PM 29.9°F-1.2°C 17.7°F-7.9°C 60% 2.7 mph NW4.3 kmh NW 11.0 mph17.7 kmh 30.16 in1021.3 mb 0.00 in0.0 mm 0.00 in0.0 mm 0.15 in3.8 mm
11:18 PM 29.9°F-1.2°C 17.3°F-8.2°C 59% 3.1 mph NW5.0 kmh NW 13.0 mph20.9 kmh 30.15 in1021.0 mb 0.00 in0.0 mm 0.00 in0.0 mm 0.15 in3.8 mm
11:23 PM 29.8°F-1.2°C 17.2°F-8.2°C 59% 3.8 mph NW6.1 kmh NW 13.0 mph20.9 kmh 30.16 in1021.3 mb 0.00 in0.0 mm 0.00 in0.0 mm 0.15 in3.8 mm
11:28 PM 29.8°F-1.2°C 16.4°F-8.7°C 57% 4.4 mph NW7.1 kmh NW 13.0 mph20.9 kmh 30.15 in1021.0 mb 0.00 in0.0 mm 0.00 in0.0 mm 0.15 in3.8 mm
11:33 PM 29.7°F-1.3°C 16.3°F-8.7°C 57% 3.5 mph NW5.6 kmh NW 13.0 mph20.9 kmh 30.16 in1021.3 mb 0.00 in0.0 mm 0.00 in0.0 mm 0.15 in3.8 mm
11:38 PM 29.7°F-1.3°C 15.9°F-8.9°C 56% 4.7 mph NW7.6 kmh NW 11.0 mph17.7 kmh 30.15 in1021.0 mb 0.00 in0.0 mm 0.00 in0.0 mm 0.15 in3.8 mm
11:43 PM 29.6°F-1.3°C 15.8°F-9.0°C 56% 3.6 mph NW5.8 kmh NW 11.0 mph17.7 kmh 30.15 in1021.0 mb 0.00 in0.0 mm 0.00 in0.0 mm 0.15 in3.8 mm
11:48 PM 29.4°F-1.4°C 15.6°F-9.1°C 56% 2.3 mph NW3.7 kmh NW 11.0 mph17.7 kmh 30.15 in1021.0 mb 0.00 in0.0 mm 0.00 in0.0 mm 0.15 in3.8 mm
11:53 PM 29.4°F-1.4°C 14.8°F-9.6°C 54% 6.2 mph NW10.0 kmh NW 11.0 mph17.7 kmh 30.15 in1021.0 mb 0.00 in0.0 mm 0.00 in0.0 mm 0.15 in3.8 mm
11:58 PM 29.3°F-1.5°C 15.1°F-9.4°C 55% 4.0 mph NW6.4 kmh NW 11.0 mph17.7 kmh 30.15 in1021.0 mb 0.00 in0.0 mm 0.00 in0.0 mm 0.15 in3.8 mm